Terminal Aerodrome Forecast
Issued by NWS

Current Version | Previous Version | Graphics & Text | Print | Product List | Glossary On
Versions: 1 2 3 4 5 6 7 8 9 10 11 12 13 14 15 16 17 18 19 20 21 22 23 24 25 26 27 28 29 30 31 32 33 34 35 36 37 38 39 40 41 42 43 44 45 46 47 48 49 50
000
FTUS41 KRNK 200535
TAFLWB
TAF
KLWB 200535Z 2006/2106 00000KT P6SM OVC035
     FM200900 VRB02KT 3SM BR OVC025
      TEMPO 2009/2012 3/4SM BR OVC012
     FM201300 17003KT P6SM BKN045
     FM201800 19005KT P6SM VCSH SCT025 BKN050
     FM210000 VRB03KT 6SM BR BKN045
     FM210300 VRB02KT 3SM BR OVC030=

USA.gov is the U.S. government's official web portal to all federal, state and local government web resources and services.